sensor_id;sensor_type;location;lat;lon;timestamp;temperature;humidity
63960;DHT22;50136;51.374;0.096;2023-02-15T00:04:38;2.90;99.90
63960;DHT22;50136;51.374;0.096;2023-02-15T00:14:40;3.20;99.90
63960;DHT22;50136;51.374;0.096;2023-02-15T00:24:43;3.40;99.90
63960;DHT22;50136;51.374;0.096;2023-02-15T00:34:45;3.60;99.90
63960;DHT22;50136;51.374;0.096;2023-02-15T00:44:48;4.00;99.90
63960;DHT22;50136;51.374;0.096;2023-02-15T00:54:50;4.20;99.90
63960;DHT22;50136;51.374;0.096;2023-02-15T01:04:54;4.50;99.90
63960;DHT22;50136;51.374;0.096;2023-02-15T01:14:56;4.70;99.90
63960;DHT22;50136;51.374;0.096;2023-02-15T01:24:59;5.00;99.90
63960;DHT22;50136;51.374;0.096;2023-02-15T01:35:01;5.10;99.90
63960;DHT22;50136;51.374;0.096;2023-02-15T01:45:18;5.20;99.90
63960;DHT22;50136;51.374;0.096;2023-02-15T01:55:22;5.00;99.90
63960;DHT22;50136;51.374;0.096;2023-02-15T02:05:26;4.80;99.90
63960;DHT22;50136;51.374;0.096;2023-02-15T02:15:37;4.70;99.90
63960;DHT22;50136;51.374;0.096;2023-02-15T02:26:02;4.60;99.90
63960;DHT22;50136;51.374;0.096;2023-02-15T02:36:15;4.50;99.90
63960;DHT22;50136;51.374;0.096;2023-02-15T02:46:26;4.30;99.90
63960;DHT22;50136;51.374;0.096;2023-02-15T02:56:37;4.20;99.90
63960;DHT22;50136;51.374;0.096;2023-02-15T03:06:45;4.10;99.90
63960;DHT22;50136;51.374;0.096;2023-02-15T03:16:51;3.90;99.90
63960;DHT22;50136;51.374;0.096;2023-02-15T03:26:53;3.70;99.90
63960;DHT22;50136;51.374;0.096;2023-02-15T03:37:02;3.50;99.90
63960;DHT22;50136;51.374;0.096;2023-02-15T03:47:12;3.40;99.90
63960;DHT22;50136;51.374;0.096;2023-02-15T03:57:20;3.70;99.90
63960;DHT22;50136;51.374;0.096;2023-02-15T04:07:22;4.00;99.90
63960;DHT22;50136;51.374;0.096;2023-02-15T04:17:26;4.10;99.90
63960;DHT22;50136;51.374;0.096;2023-02-15T04:27:28;4.20;99.90
63960;DHT22;50136;51.374;0.096;2023-02-15T04:37:31;4.30;99.90
63960;DHT22;50136;51.374;0.096;2023-02-15T04:47:33;4.40;99.90
63960;DHT22;50136;51.374;0.096;2023-02-15T04:57:36;4.40;99.90
63960;DHT22;50136;51.374;0.096;2023-02-15T05:07:38;4.60;99.90
63960;DHT22;50136;51.374;0.096;2023-02-15T05:17:42;4.80;99.90
63960;DHT22;50136;51.374;0.096;2023-02-15T05:27:44;5.00;99.90
63960;DHT22;50136;51.374;0.096;2023-02-15T05:37:47;5.30;99.90
63960;DHT22;50136;51.374;0.096;2023-02-15T05:47:49;5.60;99.90
63960;DHT22;50136;51.374;0.096;2023-02-15T05:57:52;5.70;99.90
63960;DHT22;50136;51.374;0.096;2023-02-15T06:07:54;5.70;99.90
63960;DHT22;50136;51.374;0.096;2023-02-15T06:17:58;5.80;99.90
63960;DHT22;50136;51.374;0.096;2023-02-15T06:27:59;5.90;99.90
63960;DHT22;50136;51.374;0.096;2023-02-15T06:38:03;6.00;99.90
63960;DHT22;50136;51.374;0.096;2023-02-15T06:48:05;5.90;99.90
63960;DHT22;50136;51.374;0.096;2023-02-15T06:58:08;5.80;99.90
63960;DHT22;50136;51.374;0.096;2023-02-15T07:08:10;5.50;99.90
63960;DHT22;50136;51.374;0.096;2023-02-15T07:18:14;5.30;99.90
63960;DHT22;50136;51.374;0.096;2023-02-15T07:28:15;4.90;99.90
63960;DHT22;50136;51.374;0.096;2023-02-15T07:38:19;4.90;99.90
63960;DHT22;50136;51.374;0.096;2023-02-15T07:48:21;5.10;99.90
63960;DHT22;50136;51.374;0.096;2023-02-15T07:58:27;5.40;99.90
63960;DHT22;50136;51.374;0.096;2023-02-15T08:08:29;5.80;99.90
63960;DHT22;50136;51.374;0.096;2023-02-15T08:18:32;6.10;99.90
63960;DHT22;50136;51.374;0.096;2023-02-15T08:28:34;6.50;99.90
63960;DHT22;50136;51.374;0.096;2023-02-15T08:38:37;6.80;99.90
63960;DHT22;50136;51.374;0.096;2023-02-15T08:48:39;7.00;99.90
63960;DHT22;50136;51.374;0.096;2023-02-15T08:58:43;7.30;99.90
63960;DHT22;50136;51.374;0.096;2023-02-15T09:08:45;7.70;99.90
63960;DHT22;50136;51.374;0.096;2023-02-15T09:18:49;8.30;99.90
63960;DHT22;50136;51.374;0.096;2023-02-15T09:28:52;10.20;99.90
63960;DHT22;50136;51.374;0.096;2023-02-15T09:38:58;12.40;99.90
63960;DHT22;50136;51.374;0.096;2023-02-15T09:49:04;14.30;99.90
63960;DHT22;50136;51.374;0.096;2023-02-15T09:59:16;14.60;99.90
63960;DHT22;50136;51.374;0.096;2023-02-15T10:09:33;14.30;99.90
63960;DHT22;50136;51.374;0.096;2023-02-15T10:19:42;14.70;99.90
63960;DHT22;50136;51.374;0.096;2023-02-15T10:30:01;15.60;99.90
63960;DHT22;50136;51.374;0.096;2023-02-15T10:40:10;15.90;99.90
63960;DHT22;50136;51.374;0.096;2023-02-15T10:50:24;15.10;99.90
63960;DHT22;50136;51.374;0.096;2023-02-15T11:00:32;15.70;99.90
63960;DHT22;50136;51.374;0.096;2023-02-15T11:10:41;15.80;99.90
63960;DHT22;50136;51.374;0.096;2023-02-15T11:20:52;14.90;99.90
63960;DHT22;50136;51.374;0.096;2023-02-15T11:30:55;15.20;99.90
63960;DHT22;50136;51.374;0.096;2023-02-15T11:41:03;14.80;99.90
63960;DHT22;50136;51.374;0.096;2023-02-15T11:51:08;14.30;99.90
63960;DHT22;50136;51.374;0.096;2023-02-15T12:01:16;14.10;99.90
63960;DHT22;50136;51.374;0.096;2023-02-15T12:11:22;13.80;99.90
63960;DHT22;50136;51.374;0.096;2023-02-15T12:21:30;13.90;99.90
63960;DHT22;50136;51.374;0.096;2023-02-15T12:31:36;13.90;99.90
63960;DHT22;50136;51.374;0.096;2023-02-15T12:41:45;14.10;99.90
63960;DHT22;50136;51.374;0.096;2023-02-15T12:51:49;14.00;99.90
63960;DHT22;50136;51.374;0.096;2023-02-15T13:01:54;14.00;99.90
63960;DHT22;50136;51.374;0.096;2023-02-15T13:11:57;14.10;99.90
63960;DHT22;50136;51.374;0.096;2023-02-15T13:22:14;14.10;99.90
63960;DHT22;50136;51.374;0.096;2023-02-15T13:32:25;14.10;99.90
63960;DHT22;50136;51.374;0.096;2023-02-15T13:42:35;14.20;99.90
63960;DHT22;50136;51.374;0.096;2023-02-15T13:52:45;14.20;99.90
63960;DHT22;50136;51.374;0.096;2023-02-15T14:24:12;14.40;99.90
63960;DHT22;50136;51.374;0.096;2023-02-15T14:34:21;14.30;99.90
63960;DHT22;50136;51.374;0.096;2023-02-15T14:44:29;14.40;99.90
63960;DHT22;50136;51.374;0.096;2023-02-15T14:54:57;14.70;99.90
63960;DHT22;50136;51.374;0.096;2023-02-15T15:05:06;14.90;99.90
63960;DHT22;50136;51.374;0.096;2023-02-15T15:15:12;14.90;99.90
63960;DHT22;50136;51.374;0.096;2023-02-15T15:25:44;14.90;99.90
63960;DHT22;50136;51.374;0.096;2023-02-15T15:35:58;14.80;99.90
63960;DHT22;50136;51.374;0.096;2023-02-15T15:46:22;14.60;99.90
63960;DHT22;50136;51.374;0.096;2023-02-15T15:56:29;14.40;99.90
63960;DHT22;50136;51.374;0.096;2023-02-15T16:06:36;14.10;99.90
63960;DHT22;50136;51.374;0.096;2023-02-15T16:16:38;13.80;99.90
63960;DHT22;50136;51.374;0.096;2023-02-15T16:27:03;13.40;99.90
63960;DHT22;50136;51.374;0.096;2023-02-15T16:37:17;13.10;99.90
63960;DHT22;50136;51.374;0.096;2023-02-15T16:47:23;12.70;99.90
63960;DHT22;50136;51.374;0.096;2023-02-15T16:57:28;12.40;99.90
63960;DHT22;50136;51.374;0.096;2023-02-15T17:07:32;12.00;99.90
63960;DHT22;50136;51.374;0.096;2023-02-15T17:17:35;11.70;99.90
63960;DHT22;50136;51.374;0.096;2023-02-15T17:27:40;11.40;99.90
63960;DHT22;50136;51.374;0.096;2023-02-15T17:38:05;11.20;99.90
63960;DHT22;50136;51.374;0.096;2023-02-15T17:48:40;11.00;99.90
63960;DHT22;50136;51.374;0.096;2023-02-15T17:58:53;10.90;99.90
63960;DHT22;50136;51.374;0.096;2023-02-15T18:08:56;10.80;99.90
63960;DHT22;50136;51.374;0.096;2023-02-15T18:18:58;10.60;99.90
63960;DHT22;50136;51.374;0.096;2023-02-15T18:29:02;10.60;99.90
63960;DHT22;50136;51.374;0.096;2023-02-15T18:39:05;10.60;99.90
63960;DHT22;50136;51.374;0.096;2023-02-15T18:49:14;10.50;99.90
63960;DHT22;50136;51.374;0.096;2023-02-15T18:59:17;10.60;99.90
63960;DHT22;50136;51.374;0.096;2023-02-15T19:09:22;10.50;99.90
63960;DHT22;50136;51.374;0.096;2023-02-15T19:19:25;10.30;99.90
63960;DHT22;50136;51.374;0.096;2023-02-15T19:29:29;10.40;99.90
63960;DHT22;50136;51.374;0.096;2023-02-15T19:39:34;10.40;99.90
63960;DHT22;50136;51.374;0.096;2023-02-15T19:49:39;10.40;99.90
63960;DHT22;50136;51.374;0.096;2023-02-15T19:59:41;10.20;99.90
63960;DHT22;50136;51.374;0.096;2023-02-15T20:09:45;10.10;99.90
63960;DHT22;50136;51.374;0.096;2023-02-15T20:19:47;10.00;99.90
63960;DHT22;50136;51.374;0.096;2023-02-15T20:29:50;9.80;99.90
63960;DHT22;50136;51.374;0.096;2023-02-15T20:39:52;9.70;99.90
63960;DHT22;50136;51.374;0.096;2023-02-15T20:49:56;9.80;99.90
63960;DHT22;50136;51.374;0.096;2023-02-15T20:59:58;9.80;99.90
63960;DHT22;50136;51.374;0.096;2023-02-15T21:10:02;9.90;99.90
63960;DHT22;50136;51.374;0.096;2023-02-15T21:20:07;10.00;99.90
63960;DHT22;50136;51.374;0.096;2023-02-15T21:30:22;10.00;99.90
63960;DHT22;50136;51.374;0.096;2023-02-15T21:40:26;10.00;99.90
63960;DHT22;50136;51.374;0.096;2023-02-15T21:50:30;10.10;99.90
63960;DHT22;50136;51.374;0.096;2023-02-15T22:00:32;10.00;99.90
63960;DHT22;50136;51.374;0.096;2023-02-15T22:10:35;9.90;99.90
63960;DHT22;50136;51.374;0.096;2023-02-15T22:20:37;10.00;99.90
63960;DHT22;50136;51.374;0.096;2023-02-15T22:30:42;10.00;99.90
63960;DHT22;50136;51.374;0.096;2023-02-15T22:40:44;10.20;99.90
63960;DHT22;50136;51.374;0.096;2023-02-15T22:50:48;10.20;99.90
63960;DHT22;50136;51.374;0.096;2023-02-15T23:00:50;10.50;99.90
63960;DHT22;50136;51.374;0.096;2023-02-15T23:10:54;10.50;99.90
63960;DHT22;50136;51.374;0.096;2023-02-15T23:20:59;10.60;99.90
63960;DHT22;50136;51.374;0.096;2023-02-15T23:31:10;10.50;99.90
63960;DHT22;50136;51.374;0.096;2023-02-15T23:41:16;10.20;99.90
63960;DHT22;50136;51.374;0.096;2023-02-15T23:51:28;10.10;99.90
